sensor_id;sensor_type;location;lat;lon;timestamp;P1;durP1;ratioP1;P2;durP2;ratioP2
31680;SDS011;18281;51.364;9.566;2023-05-07T00:00:45;12.07;;;8.63;;
31680;SDS011;18281;51.364;9.566;2023-05-07T00:03:11;11.80;;;9.23;;
31680;SDS011;18281;51.364;9.566;2023-05-07T00:05:36;10.70;;;9.38;;
31680;SDS011;18281;51.364;9.566;2023-05-07T00:08:04;12.30;;;9.10;;
31680;SDS011;18281;51.364;9.566;2023-05-07T00:10:29;10.32;;;8.38;;
31680;SDS011;18281;51.364;9.566;2023-05-07T00:12:55;10.27;;;8.90;;
31680;SDS011;18281;51.364;9.566;2023-05-07T00:15:20;11.70;;;9.38;;
31680;SDS011;18281;51.364;9.566;2023-05-07T00:17:45;11.18;;;9.13;;
31680;SDS011;18281;51.364;9.566;2023-05-07T00:20:11;12.23;;;10.02;;
31680;SDS011;18281;51.364;9.566;2023-05-07T00:22:37;15.68;;;9.77;;
31680;SDS011;18281;51.364;9.566;2023-05-07T00:25:02;16.15;;;10.63;;
31680;SDS011;18281;51.364;9.566;2023-05-07T00:27:28;11.77;;;9.52;;
31680;SDS011;18281;51.364;9.566;2023-05-07T00:29:54;11.68;;;8.98;;
31680;SDS011;18281;51.364;9.566;2023-05-07T00:32:19;13.23;;;10.45;;
31680;SDS011;18281;51.364;9.566;2023-05-07T00:34:45;11.80;;;10.43;;
31680;SDS011;18281;51.364;9.566;2023-05-07T00:37:10;17.58;;;11.57;;
31680;SDS011;18281;51.364;9.566;2023-05-07T00:39:36;13.05;;;10.27;;
31680;SDS011;18281;51.364;9.566;2023-05-07T00:42:02;14.25;;;11.68;;
31680;SDS011;18281;51.364;9.566;2023-05-07T00:44:28;14.23;;;10.50;;
31680;SDS011;18281;51.364;9.566;2023-05-07T00:46:54;15.80;;;11.60;;
31680;SDS011;18281;51.364;9.566;2023-05-07T00:49:21;14.60;;;11.20;;
31680;SDS011;18281;51.364;9.566;2023-05-07T00:51:48;12.38;;;9.88;;
31680;SDS011;18281;51.364;9.566;2023-05-07T00:54:15;13.85;;;10.05;;
31680;SDS011;18281;51.364;9.566;2023-05-07T00:56:41;14.95;;;10.52;;
31680;SDS011;18281;51.364;9.566;2023-05-07T00:59:07;12.35;;;9.07;;
31680;SDS011;18281;51.364;9.566;2023-05-07T01:01:33;12.98;;;10.63;;
31680;SDS011;18281;51.364;9.566;2023-05-07T01:03:58;14.00;;;10.65;;
31680;SDS011;18281;51.364;9.566;2023-05-07T01:06:24;13.15;;;9.95;;
31680;SDS011;18281;51.364;9.566;2023-05-07T01:08:52;11.90;;;9.63;;
31680;SDS011;18281;51.364;9.566;2023-05-07T01:11:21;12.73;;;9.50;;
31680;SDS011;18281;51.364;9.566;2023-05-07T01:13:47;13.60;;;9.13;;
31680;SDS011;18281;51.364;9.566;2023-05-07T01:16:15;13.23;;;9.57;;
31680;SDS011;18281;51.364;9.566;2023-05-07T01:18:41;13.07;;;9.10;;
31680;SDS011;18281;51.364;9.566;2023-05-07T01:21:06;14.07;;;10.15;;
31680;SDS011;18281;51.364;9.566;2023-05-07T01:23:35;17.58;;;11.90;;
31680;SDS011;18281;51.364;9.566;2023-05-07T01:26:01;11.88;;;8.93;;
31680;SDS011;18281;51.364;9.566;2023-05-07T01:28:27;12.40;;;8.55;;
31680;SDS011;18281;51.364;9.566;2023-05-07T01:30:53;14.15;;;11.73;;
31680;SDS011;18281;51.364;9.566;2023-05-07T01:33:21;13.90;;;10.10;;
31680;SDS011;18281;51.364;9.566;2023-05-07T01:35:48;15.90;;;10.95;;
31680;SDS011;18281;51.364;9.566;2023-05-07T01:38:16;15.98;;;11.57;;
31680;SDS011;18281;51.364;9.566;2023-05-07T01:40:43;14.10;;;9.35;;
31680;SDS011;18281;51.364;9.566;2023-05-07T01:43:09;16.65;;;12.20;;
31680;SDS011;18281;51.364;9.566;2023-05-07T01:45:35;16.20;;;11.38;;
31680;SDS011;18281;51.364;9.566;2023-05-07T01:48:02;17.05;;;12.05;;
31680;SDS011;18281;51.364;9.566;2023-05-07T01:50:28;14.50;;;11.60;;
31680;SDS011;18281;51.364;9.566;2023-05-07T01:52:54;17.40;;;11.43;;
31680;SDS011;18281;51.364;9.566;2023-05-07T01:55:20;16.40;;;11.45;;
31680;SDS011;18281;51.364;9.566;2023-05-07T01:57:45;16.27;;;11.77;;
31680;SDS011;18281;51.364;9.566;2023-05-07T02:00:11;16.00;;;11.32;;
31680;SDS011;18281;51.364;9.566;2023-05-07T02:02:36;14.93;;;11.15;;
31680;SDS011;18281;51.364;9.566;2023-05-07T02:05:03;16.85;;;10.93;;
31680;SDS011;18281;51.364;9.566;2023-05-07T02:07:29;20.70;;;13.07;;
31680;SDS011;18281;51.364;9.566;2023-05-07T02:09:55;15.05;;;10.20;;
31680;SDS011;18281;51.364;9.566;2023-05-07T02:12:20;13.75;;;10.73;;
31680;SDS011;18281;51.364;9.566;2023-05-07T02:14:46;16.80;;;12.43;;
31680;SDS011;18281;51.364;9.566;2023-05-07T02:17:11;14.52;;;11.60;;
31680;SDS011;18281;51.364;9.566;2023-05-07T02:19:37;17.60;;;11.73;;
31680;SDS011;18281;51.364;9.566;2023-05-07T02:22:02;20.73;;;13.52;;
31680;SDS011;18281;51.364;9.566;2023-05-07T02:24:28;16.30;;;11.45;;
31680;SDS011;18281;51.364;9.566;2023-05-07T02:26:53;15.65;;;12.13;;
31680;SDS011;18281;51.364;9.566;2023-05-07T02:29:18;15.65;;;11.88;;
31680;SDS011;18281;51.364;9.566;2023-05-07T02:31:44;18.42;;;12.45;;
31680;SDS011;18281;51.364;9.566;2023-05-07T02:34:09;16.27;;;12.18;;
31680;SDS011;18281;51.364;9.566;2023-05-07T02:36:34;17.27;;;11.77;;
31680;SDS011;18281;51.364;9.566;2023-05-07T02:39:00;16.70;;;11.70;;
31680;SDS011;18281;51.364;9.566;2023-05-07T02:41:25;16.30;;;11.85;;
31680;SDS011;18281;51.364;9.566;2023-05-07T02:43:53;17.52;;;12.77;;
31680;SDS011;18281;51.364;9.566;2023-05-07T02:46:18;15.73;;;10.48;;
31680;SDS011;18281;51.364;9.566;2023-05-07T02:48:43;18.67;;;14.05;;
31680;SDS011;18281;51.364;9.566;2023-05-07T02:51:09;17.13;;;12.15;;
31680;SDS011;18281;51.364;9.566;2023-05-07T02:53:34;19.95;;;13.18;;
31680;SDS011;18281;51.364;9.566;2023-05-07T02:56:00;19.58;;;14.63;;
31680;SDS011;18281;51.364;9.566;2023-05-07T02:58:26;15.65;;;12.00;;
31680;SDS011;18281;51.364;9.566;2023-05-07T03:00:52;18.30;;;13.63;;
31680;SDS011;18281;51.364;9.566;2023-05-07T03:03:18;22.73;;;15.20;;
31680;SDS011;18281;51.364;9.566;2023-05-07T03:05:43;19.02;;;14.40;;
31680;SDS011;18281;51.364;9.566;2023-05-07T03:08:09;20.15;;;14.68;;
31680;SDS011;18281;51.364;9.566;2023-05-07T03:10:35;18.42;;;13.55;;
31680;SDS011;18281;51.364;9.566;2023-05-07T03:13:01;20.05;;;13.15;;
31680;SDS011;18281;51.364;9.566;2023-05-07T03:15:27;22.77;;;14.70;;
31680;SDS011;18281;51.364;9.566;2023-05-07T03:17:53;18.85;;;13.60;;
31680;SDS011;18281;51.364;9.566;2023-05-07T03:20:18;19.65;;;13.75;;
31680;SDS011;18281;51.364;9.566;2023-05-07T03:22:44;18.92;;;12.55;;
31680;SDS011;18281;51.364;9.566;2023-05-07T03:25:09;18.83;;;14.80;;
31680;SDS011;18281;51.364;9.566;2023-05-07T03:27:35;22.48;;;14.57;;
31680;SDS011;18281;51.364;9.566;2023-05-07T03:30:00;23.77;;;14.82;;
31680;SDS011;18281;51.364;9.566;2023-05-07T03:32:26;16.70;;;12.75;;
31680;SDS011;18281;51.364;9.566;2023-05-07T03:34:51;20.35;;;14.40;;
31680;SDS011;18281;51.364;9.566;2023-05-07T03:37:17;19.58;;;13.80;;
31680;SDS011;18281;51.364;9.566;2023-05-07T03:39:43;20.60;;;13.73;;
31680;SDS011;18281;51.364;9.566;2023-05-07T03:42:09;19.88;;;14.15;;
31680;SDS011;18281;51.364;9.566;2023-05-07T03:44:34;19.75;;;13.52;;
31680;SDS011;18281;51.364;9.566;2023-05-07T03:47:01;22.50;;;14.30;;
31680;SDS011;18281;51.364;9.566;2023-05-07T03:49:26;18.95;;;13.07;;
31680;SDS011;18281;51.364;9.566;2023-05-07T03:51:52;22.33;;;14.88;;
31680;SDS011;18281;51.364;9.566;2023-05-07T03:54:17;20.90;;;14.30;;
31680;SDS011;18281;51.364;9.566;2023-05-07T03:56:42;21.58;;;14.40;;
31680;SDS011;18281;51.364;9.566;2023-05-07T03:59:09;16.38;;;12.57;;
31680;SDS011;18281;51.364;9.566;2023-05-07T04:01:35;19.80;;;13.02;;
31680;SDS011;18281;51.364;9.566;2023-05-07T04:04:00;17.48;;;12.80;;
31680;SDS011;18281;51.364;9.566;2023-05-07T04:06:26;21.20;;;12.70;;
31680;SDS011;18281;51.364;9.566;2023-05-07T04:08:52;18.45;;;12.23;;
31680;SDS011;18281;51.364;9.566;2023-05-07T04:11:17;18.17;;;12.27;;
31680;SDS011;18281;51.364;9.566;2023-05-07T04:13:43;17.02;;;13.10;;
31680;SDS011;18281;51.364;9.566;2023-05-07T04:16:08;18.95;;;13.63;;
31680;SDS011;18281;51.364;9.566;2023-05-07T04:18:33;18.63;;;13.95;;
31680;SDS011;18281;51.364;9.566;2023-05-07T04:20:59;16.65;;;11.73;;
31680;SDS011;18281;51.364;9.566;2023-05-07T04:23:24;17.08;;;12.50;;
31680;SDS011;18281;51.364;9.566;2023-05-07T04:25:50;14.70;;;11.52;;
31680;SDS011;18281;51.364;9.566;2023-05-07T04:28:15;17.35;;;12.57;;
31680;SDS011;18281;51.364;9.566;2023-05-07T04:30:41;17.33;;;12.63;;
31680;SDS011;18281;51.364;9.566;2023-05-07T04:33:07;16.13;;;11.30;;
31680;SDS011;18281;51.364;9.566;2023-05-07T04:35:32;14.68;;;10.48;;
31680;SDS011;18281;51.364;9.566;2023-05-07T04:37:58;18.00;;;13.32;;
31680;SDS011;18281;51.364;9.566;2023-05-07T04:40:23;17.00;;;13.02;;
31680;SDS011;18281;51.364;9.566;2023-05-07T04:42:49;16.38;;;11.52;;
31680;SDS011;18281;51.364;9.566;2023-05-07T04:45:14;18.58;;;10.95;;
31680;SDS011;18281;51.364;9.566;2023-05-07T04:47:40;15.00;;;11.02;;
31680;SDS011;18281;51.364;9.566;2023-05-07T04:50:06;15.27;;;11.65;;
31680;SDS011;18281;51.364;9.566;2023-05-07T04:52:33;14.73;;;10.75;;
31680;SDS011;18281;51.364;9.566;2023-05-07T04:54:59;17.10;;;12.10;;
31680;SDS011;18281;51.364;9.566;2023-05-07T04:57:25;15.35;;;11.15;;
31680;SDS011;18281;51.364;9.566;2023-05-07T04:59:51;15.02;;;11.35;;
31680;SDS011;18281;51.364;9.566;2023-05-07T05:02:17;14.00;;;10.20;;
31680;SDS011;18281;51.364;9.566;2023-05-07T05:04:42;15.55;;;11.27;;
31680;SDS011;18281;51.364;9.566;2023-05-07T05:07:07;17.98;;;11.38;;
31680;SDS011;18281;51.364;9.566;2023-05-07T05:09:33;21.45;;;11.45;;
31680;SDS011;18281;51.364;9.566;2023-05-07T05:11:58;17.98;;;11.30;;
31680;SDS011;18281;51.364;9.566;2023-05-07T05:14:24;16.23;;;11.05;;
31680;SDS011;18281;51.364;9.566;2023-05-07T05:16:50;14.30;;;11.00;;
31680;SDS011;18281;51.364;9.566;2023-05-07T05:19:15;15.90;;;11.57;;
31680;SDS011;18281;51.364;9.566;2023-05-07T05:21:41;14.80;;;10.20;;
31680;SDS011;18281;51.364;9.566;2023-05-07T05:24:06;15.13;;;10.43;;
31680;SDS011;18281;51.364;9.566;2023-05-07T05:26:32;16.08;;;11.93;;
31680;SDS011;18281;51.364;9.566;2023-05-07T05:28:57;13.50;;;10.30;;
31680;SDS011;18281;51.364;9.566;2023-05-07T05:31:23;18.23;;;10.98;;
31680;SDS011;18281;51.364;9.566;2023-05-07T05:33:48;11.80;;;9.70;;
31680;SDS011;18281;51.364;9.566;2023-05-07T05:36:13;16.60;;;10.50;;
31680;SDS011;18281;51.364;9.566;2023-05-07T05:38:39;12.45;;;9.77;;
31680;SDS011;18281;51.364;9.566;2023-05-07T05:41:05;14.18;;;9.90;;
31680;SDS011;18281;51.364;9.566;2023-05-07T05:43:30;14.65;;;10.43;;
31680;SDS011;18281;51.364;9.566;2023-05-07T05:45:56;12.80;;;9.85;;
31680;SDS011;18281;51.364;9.566;2023-05-07T05:48:22;12.32;;;9.70;;
31680;SDS011;18281;51.364;9.566;2023-05-07T05:50:48;13.77;;;9.45;;
31680;SDS011;18281;51.364;9.566;2023-05-07T05:53:13;13.82;;;10.75;;
31680;SDS011;18281;51.364;9.566;2023-05-07T05:55:39;13.68;;;10.35;;
31680;SDS011;18281;51.364;9.566;2023-05-07T05:58:05;12.82;;;9.48;;
31680;SDS011;18281;51.364;9.566;2023-05-07T06:00:30;12.38;;;9.95;;
31680;SDS011;18281;51.364;9.566;2023-05-07T06:02:56;11.55;;;9.60;;
31680;SDS011;18281;51.364;9.566;2023-05-07T06:05:21;13.55;;;9.02;;
31680;SDS011;18281;51.364;9.566;2023-05-07T06:07:46;12.75;;;9.10;;
31680;SDS011;18281;51.364;9.566;2023-05-07T06:10:12;13.13;;;10.02;;
31680;SDS011;18281;51.364;9.566;2023-05-07T06:12:37;12.32;;;8.35;;
31680;SDS011;18281;51.364;9.566;2023-05-07T06:15:03;10.15;;;6.28;;
31680;SDS011;18281;51.364;9.566;2023-05-07T06:17:28;11.18;;;5.55;;
31680;SDS011;18281;51.364;9.566;2023-05-07T06:19:54;12.75;;;7.57;;
31680;SDS011;18281;51.364;9.566;2023-05-07T06:22:20;10.68;;;7.93;;
31680;SDS011;18281;51.364;9.566;2023-05-07T06:24:45;10.18;;;7.63;;
31680;SDS011;18281;51.364;9.566;2023-05-07T06:27:11;11.05;;;7.97;;
31680;SDS011;18281;51.364;9.566;2023-05-07T06:29:36;9.93;;;7.97;;
31680;SDS011;18281;51.364;9.566;2023-05-07T06:32:08;11.88;;;8.30;;
31680;SDS011;18281;51.364;9.566;2023-05-07T06:34:38;8.70;;;7.05;;
31680;SDS011;18281;51.364;9.566;2023-05-07T06:37:04;11.70;;;7.93;;
31680;SDS011;18281;51.364;9.566;2023-05-07T06:39:29;9.75;;;7.72;;
31680;SDS011;18281;51.364;9.566;2023-05-07T06:41:55;12.23;;;8.02;;
31680;SDS011;18281;51.364;9.566;2023-05-07T06:44:20;8.77;;;6.78;;
31680;SDS011;18281;51.364;9.566;2023-05-07T06:46:46;12.88;;;7.25;;
31680;SDS011;18281;51.364;9.566;2023-05-07T06:49:14;12.32;;;7.50;;
31680;SDS011;18281;51.364;9.566;2023-05-07T06:51:40;9.20;;;6.95;;
31680;SDS011;18281;51.364;9.566;2023-05-07T06:54:05;9.35;;;7.07;;
31680;SDS011;18281;51.364;9.566;2023-05-07T06:56:31;11.27;;;8.20;;
31680;SDS011;18281;51.364;9.566;2023-05-07T06:58:57;10.32;;;7.50;;
31680;SDS011;18281;51.364;9.566;2023-05-07T07:01:22;8.57;;;7.15;;
31680;SDS011;18281;51.364;9.566;2023-05-07T07:03:47;9.98;;;8.38;;
31680;SDS011;18281;51.364;9.566;2023-05-07T07:06:13;8.20;;;6.85;;
31680;SDS011;18281;51.364;9.566;2023-05-07T07:08:39;10.90;;;7.25;;
31680;SDS011;18281;51.364;9.566;2023-05-07T07:11:05;9.18;;;7.03;;
31680;SDS011;18281;51.364;9.566;2023-05-07T07:13:30;7.95;;;7.00;;
31680;SDS011;18281;51.364;9.566;2023-05-07T07:15:56;8.20;;;6.40;;
31680;SDS011;18281;51.364;9.566;2023-05-07T07:18:22;8.80;;;7.03;;
31680;SDS011;18281;51.364;9.566;2023-05-07T07:20:48;9.93;;;7.43;;
31680;SDS011;18281;51.364;9.566;2023-05-07T07:23:13;8.95;;;7.00;;
31680;SDS011;18281;51.364;9.566;2023-05-07T07:25:39;8.73;;;6.47;;
31680;SDS011;18281;51.364;9.566;2023-05-07T07:28:05;10.30;;;7.63;;
31680;SDS011;18281;51.364;9.566;2023-05-07T07:30:30;11.55;;;7.07;;
31680;SDS011;18281;51.364;9.566;2023-05-07T07:32:56;9.35;;;7.05;;
31680;SDS011;18281;51.364;9.566;2023-05-07T07:35:27;9.27;;;7.28;;
31680;SDS011;18281;51.364;9.566;2023-05-07T07:37:52;11.82;;;9.52;;
31680;SDS011;18281;51.364;9.566;2023-05-07T07:40:17;13.75;;;9.50;;
31680;SDS011;18281;51.364;9.566;2023-05-07T07:42:43;14.20;;;9.73;;
31680;SDS011;18281;51.364;9.566;2023-05-07T07:45:08;12.75;;;8.73;;
31680;SDS011;18281;51.364;9.566;2023-05-07T07:47:34;9.60;;;7.57;;
31680;SDS011;18281;51.364;9.566;2023-05-07T07:49:59;10.70;;;8.00;;
31680;SDS011;18281;51.364;9.566;2023-05-07T07:52:24;10.77;;;8.07;;
31680;SDS011;18281;51.364;9.566;2023-05-07T07:54:50;8.35;;;6.85;;
31680;SDS011;18281;51.364;9.566;2023-05-07T07:57:15;10.73;;;6.90;;
31680;SDS011;18281;51.364;9.566;2023-05-07T07:59:41;7.75;;;6.60;;
31680;SDS011;18281;51.364;9.566;2023-05-07T08:02:08;8.20;;;6.70;;
31680;SDS011;18281;51.364;9.566;2023-05-07T08:04:33;7.25;;;6.20;;
31680;SDS011;18281;51.364;9.566;2023-05-07T08:06:58;8.88;;;6.63;;
31680;SDS011;18281;51.364;9.566;2023-05-07T08:09:24;7.75;;;6.22;;
31680;SDS011;18281;51.364;9.566;2023-05-07T08:11:49;7.50;;;6.40;;
31680;SDS011;18281;51.364;9.566;2023-05-07T08:14:14;7.20;;;5.43;;
31680;SDS011;18281;51.364;9.566;2023-05-07T08:16:40;7.38;;;6.05;;
31680;SDS011;18281;51.364;9.566;2023-05-07T08:19:06;6.57;;;5.43;;
31680;SDS011;18281;51.364;9.566;2023-05-07T08:21:31;8.13;;;6.07;;
31680;SDS011;18281;51.364;9.566;2023-05-07T08:23:57;7.22;;;5.65;;
31680;SDS011;18281;51.364;9.566;2023-05-07T08:26:22;7.10;;;5.65;;
31680;SDS011;18281;51.364;9.566;2023-05-07T08:28:47;5.60;;;4.60;;
31680;SDS011;18281;51.364;9.566;2023-05-07T08:31:13;5.95;;;4.28;;
31680;SDS011;18281;51.364;9.566;2023-05-07T08:33:38;7.03;;;4.03;;
31680;SDS011;18281;51.364;9.566;2023-05-07T08:36:04;5.20;;;4.00;;
31680;SDS011;18281;51.364;9.566;2023-05-07T08:38:30;6.13;;;4.30;;
31680;SDS011;18281;51.364;9.566;2023-05-07T08:40:56;5.38;;;3.85;;
31680;SDS011;18281;51.364;9.566;2023-05-07T08:43:21;4.65;;;3.90;;
31680;SDS011;18281;51.364;9.566;2023-05-07T08:45:52;4.88;;;4.22;;
31680;SDS011;18281;51.364;9.566;2023-05-07T08:48:19;4.78;;;4.32;;
31680;SDS011;18281;51.364;9.566;2023-05-07T08:50:49;4.18;;;3.50;;
31680;SDS011;18281;51.364;9.566;2023-05-07T08:53:15;4.18;;;3.67;;
31680;SDS011;18281;51.364;9.566;2023-05-07T08:55:41;3.85;;;3.42;;
31680;SDS011;18281;51.364;9.566;2023-05-07T08:58:06;4.95;;;3.50;;
31680;SDS011;18281;51.364;9.566;2023-05-07T09:00:32;3.83;;;3.42;;
31680;SDS011;18281;51.364;9.566;2023-05-07T09:02:57;3.22;;;3.03;;
31680;SDS011;18281;51.364;9.566;2023-05-07T09:05:23;3.95;;;3.17;;
31680;SDS011;18281;51.364;9.566;2023-05-07T09:07:48;3.25;;;2.95;;
31680;SDS011;18281;51.364;9.566;2023-05-07T09:10:14;6.65;;;3.90;;
31680;SDS011;18281;51.364;9.566;2023-05-07T09:12:39;3.70;;;3.28;;
31680;SDS011;18281;51.364;9.566;2023-05-07T09:15:05;3.50;;;2.83;;
31680;SDS011;18281;51.364;9.566;2023-05-07T09:17:31;3.10;;;2.80;;
31680;SDS011;18281;51.364;9.566;2023-05-07T09:20:01;3.05;;;2.70;;
31680;SDS011;18281;51.364;9.566;2023-05-07T09:22:35;4.30;;;3.00;;
31680;SDS011;18281;51.364;9.566;2023-05-07T09:25:01;3.80;;;3.03;;
31680;SDS011;18281;51.364;9.566;2023-05-07T09:27:27;2.97;;;2.65;;
31680;SDS011;18281;51.364;9.566;2023-05-07T09:29:52;2.78;;;2.53;;
31680;SDS011;18281;51.364;9.566;2023-05-07T09:32:18;2.55;;;2.28;;
31680;SDS011;18281;51.364;9.566;2023-05-07T09:34:43;2.88;;;2.03;;
31680;SDS011;18281;51.364;9.566;2023-05-07T09:37:09;2.75;;;2.20;;
31680;SDS011;18281;51.364;9.566;2023-05-07T09:39:44;2.00;;;1.80;;
31680;SDS011;18281;51.364;9.566;2023-05-07T09:42:11;1.90;;;1.80;;
31680;SDS011;18281;51.364;9.566;2023-05-07T09:44:38;2.40;;;2.20;;
31680;SDS011;18281;51.364;9.566;2023-05-07T09:47:07;2.10;;;1.90;;
31680;SDS011;18281;51.364;9.566;2023-05-07T09:49:34;2.10;;;1.98;;
31680;SDS011;18281;51.364;9.566;2023-05-07T09:52:01;2.05;;;1.80;;
31680;SDS011;18281;51.364;9.566;2023-05-07T09:54:28;2.22;;;1.83;;
31680;SDS011;18281;51.364;9.566;2023-05-07T09:56:55;2.50;;;2.30;;
31680;SDS011;18281;51.364;9.566;2023-05-07T09:59:22;2.42;;;2.15;;
31680;SDS011;18281;51.364;9.566;2023-05-07T10:01:47;2.00;;;1.80;;
31680;SDS011;18281;51.364;9.566;2023-05-07T10:04:13;1.70;;;1.60;;
31680;SDS011;18281;51.364;9.566;2023-05-07T10:06:39;4.03;;;2.17;;
31680;SDS011;18281;51.364;9.566;2023-05-07T10:09:06;4.13;;;2.30;;
31680;SDS011;18281;51.364;9.566;2023-05-07T10:11:35;106.68;;;3.97;;
31680;SDS011;18281;51.364;9.566;2023-05-07T10:14:01;48.50;;;2.60;;
31680;SDS011;18281;51.364;9.566;2023-05-07T10:16:28;38.28;;;2.28;;
31680;SDS011;18281;51.364;9.566;2023-05-07T10:19:02;15.63;;;2.08;;
31680;SDS011;18281;51.364;9.566;2023-05-07T10:21:28;6.43;;;2.20;;
31680;SDS011;18281;51.364;9.566;2023-05-07T10:26:25;2.35;;;1.85;;
31680;SDS011;18281;51.364;9.566;2023-05-07T10:28:55;2.10;;;1.77;;
31680;SDS011;18281;51.364;9.566;2023-05-07T10:31:33;5.75;;;2.15;;
31680;SDS011;18281;51.364;9.566;2023-05-07T10:34:11;9.65;;;1.90;;
31680;SDS011;18281;51.364;9.566;2023-05-07T10:36:41;6.55;;;2.03;;
31680;SDS011;18281;51.364;9.566;2023-05-07T10:39:08;4.18;;;2.38;;
31680;SDS011;18281;51.364;9.566;2023-05-07T10:41:33;2.50;;;1.98;;
31680;SDS011;18281;51.364;9.566;2023-05-07T10:43:59;3.08;;;2.05;;
31680;SDS011;18281;51.364;9.566;2023-05-07T10:46:27;4.00;;;2.08;;
31680;SDS011;18281;51.364;9.566;2023-05-07T10:51:27;2.85;;;2.45;;
31680;SDS011;18281;51.364;9.566;2023-05-07T10:56:34;3.42;;;1.95;;
31680;SDS011;18281;51.364;9.566;2023-05-07T11:01:57;2.63;;;2.33;;
31680;SDS011;18281;51.364;9.566;2023-05-07T11:04:31;3.25;;;2.95;;
31680;SDS011;18281;51.364;9.566;2023-05-07T11:07:23;3.47;;;2.60;;
31680;SDS011;18281;51.364;9.566;2023-05-07T11:15:07;3.00;;;2.70;;
31680;SDS011;18281;51.364;9.566;2023-05-07T11:17:34;3.15;;;2.85;;
31680;SDS011;18281;51.364;9.566;2023-05-07T11:20:17;3.40;;;3.05;;
31680;SDS011;18281;51.364;9.566;2023-05-07T11:22:42;3.55;;;2.65;;
31680;SDS011;18281;51.364;9.566;2023-05-07T11:25:08;3.13;;;2.80;;
31680;SDS011;18281;51.364;9.566;2023-05-07T11:27:33;4.45;;;3.38;;
31680;SDS011;18281;51.364;9.566;2023-05-07T11:29:59;3.28;;;2.92;;
31680;SDS011;18281;51.364;9.566;2023-05-07T11:32:26;4.45;;;3.60;;
31680;SDS011;18281;51.364;9.566;2023-05-07T11:34:53;3.17;;;2.97;;
31680;SDS011;18281;51.364;9.566;2023-05-07T11:37:24;6.20;;;2.78;;
31680;SDS011;18281;51.364;9.566;2023-05-07T11:39:50;4.15;;;2.65;;
31680;SDS011;18281;51.364;9.566;2023-05-07T11:42:29;3.85;;;3.25;;
31680;SDS011;18281;51.364;9.566;2023-05-07T11:44:55;6.60;;;3.65;;
31680;SDS011;18281;51.364;9.566;2023-05-07T11:47:21;3.72;;;3.40;;
31680;SDS011;18281;51.364;9.566;2023-05-07T11:49:47;3.40;;;3.05;;
31680;SDS011;18281;51.364;9.566;2023-05-07T11:52:17;3.15;;;2.92;;
31680;SDS011;18281;51.364;9.566;2023-05-07T11:54:54;4.15;;;3.03;;
31680;SDS011;18281;51.364;9.566;2023-05-07T11:57:22;3.47;;;2.92;;
31680;SDS011;18281;51.364;9.566;2023-05-07T11:59:52;5.45;;;3.67;;
31680;SDS011;18281;51.364;9.566;2023-05-07T12:02:18;4.28;;;3.55;;
31680;SDS011;18281;51.364;9.566;2023-05-07T12:04:44;4.28;;;3.17;;
31680;SDS011;18281;51.364;9.566;2023-05-07T12:07:13;4.05;;;3.67;;
31680;SDS011;18281;51.364;9.566;2023-05-07T12:09:43;4.82;;;2.80;;
31680;SDS011;18281;51.364;9.566;2023-05-07T12:12:09;2.78;;;2.58;;
31680;SDS011;18281;51.364;9.566;2023-05-07T12:14:39;7.97;;;2.90;;
31680;SDS011;18281;51.364;9.566;2023-05-07T12:17:08;7.25;;;3.78;;
31680;SDS011;18281;51.364;9.566;2023-05-07T12:19:35;3.63;;;2.58;;
31680;SDS011;18281;51.364;9.566;2023-05-07T12:22:04;4.68;;;2.80;;
31680;SDS011;18281;51.364;9.566;2023-05-07T12:27:27;11.70;;;3.20;;
31680;SDS011;18281;51.364;9.566;2023-05-07T12:29:53;4.25;;;3.58;;
31680;SDS011;18281;51.364;9.566;2023-05-07T12:32:19;5.25;;;3.38;;
31680;SDS011;18281;51.364;9.566;2023-05-07T12:34:46;9.68;;;3.67;;
31680;SDS011;18281;51.364;9.566;2023-05-07T12:37:14;6.57;;;3.50;;
31680;SDS011;18281;51.364;9.566;2023-05-07T12:39:49;4.30;;;3.85;;
31680;SDS011;18281;51.364;9.566;2023-05-07T12:42:28;4.93;;;3.22;;
31680;SDS011;18281;51.364;9.566;2023-05-07T12:45:00;5.28;;;3.60;;
31680;SDS011;18281;51.364;9.566;2023-05-07T12:47:27;3.50;;;3.20;;
31680;SDS011;18281;51.364;9.566;2023-05-07T12:49:54;5.30;;;3.10;;
31680;SDS011;18281;51.364;9.566;2023-05-07T12:52:19;3.97;;;3.03;;
31680;SDS011;18281;51.364;9.566;2023-05-07T12:54:45;3.25;;;2.90;;
31680;SDS011;18281;51.364;9.566;2023-05-07T12:57:12;3.85;;;3.47;;
31680;SDS011;18281;51.364;9.566;2023-05-07T12:59:39;4.35;;;3.03;;
31680;SDS011;18281;51.364;9.566;2023-05-07T13:02:06;4.30;;;3.13;;
31680;SDS011;18281;51.364;9.566;2023-05-07T13:04:32;4.10;;;3.47;;
31680;SDS011;18281;51.364;9.566;2023-05-07T13:06:58;3.70;;;2.90;;
31680;SDS011;18281;51.364;9.566;2023-05-07T13:09:24;3.90;;;3.47;;
31680;SDS011;18281;51.364;9.566;2023-05-07T13:11:50;7.63;;;3.28;;
31680;SDS011;18281;51.364;9.566;2023-05-07T13:14:15;3.67;;;2.92;;
31680;SDS011;18281;51.364;9.566;2023-05-07T13:16:41;4.68;;;3.40;;
31680;SDS011;18281;51.364;9.566;2023-05-07T13:19:06;4.22;;;3.65;;
31680;SDS011;18281;51.364;9.566;2023-05-07T13:21:31;4.43;;;3.30;;
31680;SDS011;18281;51.364;9.566;2023-05-07T13:23:57;4.35;;;3.35;;
31680;SDS011;18281;51.364;9.566;2023-05-07T13:26:23;4.78;;;3.45;;
31680;SDS011;18281;51.364;9.566;2023-05-07T13:28:49;6.32;;;4.43;;
31680;SDS011;18281;51.364;9.566;2023-05-07T13:31:15;4.70;;;4.07;;
31680;SDS011;18281;51.364;9.566;2023-05-07T13:33:41;4.55;;;3.88;;
31680;SDS011;18281;51.364;9.566;2023-05-07T13:36:07;5.57;;;4.30;;
31680;SDS011;18281;51.364;9.566;2023-05-07T13:38:32;6.35;;;3.67;;
31680;SDS011;18281;51.364;9.566;2023-05-07T13:40:57;4.45;;;4.05;;
31680;SDS011;18281;51.364;9.566;2023-05-07T13:43:22;5.30;;;4.55;;
31680;SDS011;18281;51.364;9.566;2023-05-07T13:45:49;5.10;;;4.47;;
31680;SDS011;18281;51.364;9.566;2023-05-07T13:48:15;5.60;;;4.57;;
31680;SDS011;18281;51.364;9.566;2023-05-07T13:50:40;6.35;;;4.13;;
31680;SDS011;18281;51.364;9.566;2023-05-07T13:53:05;6.40;;;4.68;;
31680;SDS011;18281;51.364;9.566;2023-05-07T13:55:31;6.53;;;3.97;;
31680;SDS011;18281;51.364;9.566;2023-05-07T13:57:57;8.52;;;4.78;;
31680;SDS011;18281;51.364;9.566;2023-05-07T14:00:24;6.88;;;4.55;;
31680;SDS011;18281;51.364;9.566;2023-05-07T14:02:51;5.45;;;4.20;;
31680;SDS011;18281;51.364;9.566;2023-05-07T14:05:17;5.88;;;4.47;;
31680;SDS011;18281;51.364;9.566;2023-05-07T14:07:42;5.75;;;4.15;;
31680;SDS011;18281;51.364;9.566;2023-05-07T14:10:08;6.25;;;4.68;;
31680;SDS011;18281;51.364;9.566;2023-05-07T14:12:34;7.80;;;4.90;;
31680;SDS011;18281;51.364;9.566;2023-05-07T14:15:00;5.45;;;4.28;;
31680;SDS011;18281;51.364;9.566;2023-05-07T14:17:25;5.72;;;4.25;;
31680;SDS011;18281;51.364;9.566;2023-05-07T14:19:52;4.57;;;4.18;;
31680;SDS011;18281;51.364;9.566;2023-05-07T14:22:21;4.75;;;3.97;;
31680;SDS011;18281;51.364;9.566;2023-05-07T14:24:47;5.38;;;4.53;;
31680;SDS011;18281;51.364;9.566;2023-05-07T14:27:13;5.10;;;3.92;;
31680;SDS011;18281;51.364;9.566;2023-05-07T14:29:38;7.35;;;4.50;;
31680;SDS011;18281;51.364;9.566;2023-05-07T14:32:04;6.57;;;5.50;;
31680;SDS011;18281;51.364;9.566;2023-05-07T14:34:29;6.28;;;5.00;;
31680;SDS011;18281;51.364;9.566;2023-05-07T14:36:55;4.50;;;3.85;;
31680;SDS011;18281;51.364;9.566;2023-05-07T14:39:20;5.13;;;4.43;;
31680;SDS011;18281;51.364;9.566;2023-05-07T14:41:46;4.40;;;4.00;;
31680;SDS011;18281;51.364;9.566;2023-05-07T14:44:11;4.80;;;4.00;;
31680;SDS011;18281;51.364;9.566;2023-05-07T14:46:36;4.82;;;3.95;;
31680;SDS011;18281;51.364;9.566;2023-05-07T14:49:02;6.30;;;4.15;;